Terminal Aerodrome Forecast
Issued by NWS Shreveport, LA

Home | Current Version | Previous Version | Text Only | Print | Product List | Glossary On
Versions: 1 2 3 4 5 6 7 8 9 10 11 12 13
742
FTUS44 KSHV 281147
TAFMLU
TAF
KMLU 281147Z 2812/2912 19004KT P6SM FEW005 SCT010 OVC025
     FM281600 17006KT P6SM BKN030
     FM281900 17006KT P6SM BKN040
     FM290800 16006KT 5SM BR OVC015=

USA.gov is the U.S. government's official web portal to all federal, state and local government web resources and services.